Time;durP1;ratioP1;P1;durP2;ratioP2;P2;SDS_P1;SDS_P2;PMS_P1;PMS_P2;Temp;Humidity;BMP_temperature;BMP_pressure;BME280_temperature;BME280_humidity;BME280_pressure;Samples;Min_cycle;Max_cycle;Signal;HPM_P1;HPM_P2
2021/08/12 00:01:48;;;;;;;8.95;3.40;;;20.10;90.80;;;;;;5013114;28;20033;-86
2021/08/12 00:04:18;;;;;;;6.03;3.20;;;20.10;90.80;;;;;;5013538;28;20022;-86
2021/08/12 00:06:44;;;;;;;5.63;3.08;;;20.10;90.80;;;;;;5013103;28;20531;-87
2021/08/12 00:09:10;;;;;;;6.57;3.55;;;20.00;90.90;;;;;;5013519;28;20371;-86
2021/08/12 00:11:36;;;;;;;5.40;3.30;;;19.90;91.00;;;;;;5013056;28;20026;-87
2021/08/12 00:14:02;;;;;;;5.20;3.10;;;19.90;91.30;;;;;;5013593;28;20074;-86
2021/08/12 00:16:27;;;;;;;4.57;3.03;;;19.90;90.90;;;;;;5013587;28;20034;-85
2021/08/12 00:18:55;;;;;;;6.30;3.25;;;19.90;90.90;;;;;;5012525;28;20026;-85
2021/08/12 00:21:23;;;;;;;4.72;3.05;;;20.00;90.80;;;;;;5013412;28;20026;-85
2021/08/12 00:23:49;;;;;;;5.85;3.55;;;20.00;90.70;;;;;;5012861;28;20018;-86
2021/08/12 00:26:15;;;;;;;6.65;3.00;;;20.00;90.70;;;;;;5013202;28;20026;-86
2021/08/12 00:28:40;;;;;;;5.13;3.30;;;19.90;90.70;;;;;;5012556;28;20029;-87
2021/08/12 00:31:06;;;;;;;4.47;2.97;;;19.90;90.80;;;;;;5014269;28;20120;-86
2021/08/12 00:33:33;;;;;;;5.65;3.55;;;19.90;90.80;;;;;;5013149;28;20422;-87
2021/08/12 00:35:59;;;;;;;5.20;2.95;;;19.90;90.70;;;;;;5013031;28;20030;-87
2021/08/12 00:38:24;;;;;;;6.70;3.17;;;19.90;90.60;;;;;;5012961;28;20099;-85
2021/08/12 00:40:50;;;;;;;4.22;3.10;;;19.90;90.60;;;;;;5012595;28;20469;-86
2021/08/12 00:43:16;;;;;;;6.00;3.28;;;19.90;90.60;;;;;;5014001;28;20025;-84
2021/08/12 00:45:41;;;;;;;4.53;2.83;;;19.90;90.50;;;;;;5012638;28;20033;-85
2021/08/12 00:48:07;;;;;;;4.95;3.13;;;19.80;90.60;;;;;;5013573;28;20029;-84
2021/08/12 00:50:35;;;;;;;5.53;3.38;;;19.80;90.60;;;;;;5013070;28;20451;-85
2021/08/12 00:53:01;;;;;;;4.15;2.95;;;19.80;90.60;;;;;;5012788;28;20115;-84
2021/08/12 00:55:27;;;;;;;5.43;2.95;;;19.80;90.60;;;;;;5014408;28;20472;-84
2021/08/12 00:57:52;;;;;;;6.03;3.28;;;19.70;90.60;;;;;;5012537;28;20026;-85
2021/08/12 01:00:18;;;;;;;7.90;3.40;;;19.70;90.70;;;;;;5013009;28;20084;-85
2021/08/12 01:02:44;;;;;;;6.30;3.50;;;19.70;90.70;;;;;;5012539;28;20028;-84
2021/08/12 01:05:10;;;;;;;5.45;3.22;;;19.70;90.70;;;;;;5012966;28;20022;-84
2021/08/12 01:07:57;;;;;;;5.68;3.00;;;19.70;90.70;;;;;;5014068;28;20093;-84
2021/08/12 01:10:56;;;;;;;5.45;3.17;;;19.60;90.70;;;;;;5012934;28;20036;-84
2021/08/12 01:13:49;;;;;;;5.22;3.30;;;19.60;90.80;;;;;;5009213;28;20118;-84
2021/08/12 01:16:19;;;;;;;6.07;3.15;;;19.60;90.80;;;;;;5013473;28;20026;-84
2021/08/12 01:19:13;;;;;;;4.40;3.25;;;19.60;90.70;;;;;;5012534;28;20026;-84
2021/08/12 01:21:49;;;;;;;5.63;3.10;;;19.50;90.70;;;;;;5012714;28;20118;-89
2021/08/12 01:24:15;;;;;;;5.50;3.25;;;19.40;90.90;;;;;;5013687;28;20116;-85
2021/08/12 01:26:44;;;;;;;4.30;3.25;;;19.40;91.00;;;;;;5013622;28;20038;-85
2021/08/12 01:29:15;;;;;;;4.38;3.20;;;19.40;91.10;;;;;;5012892;28;20459;-84
2021/08/12 01:31:46;;;;;;;;;;;19.30;91.20;;;;;;5014929;28;20029;-85
2021/08/12 01:34:28;;;;;;;7.30;3.60;;;19.30;91.40;;;;;;5016890;28;19901;-85
2021/08/12 01:36:55;;;;;;;6.78;3.17;;;19.20;91.20;;;;;;5015715;28;20049;-85
2021/08/12 01:39:23;;;;;;;10.25;4.65;;;19.20;91.40;;;;;;5017298;28;20061;-84
2021/08/12 01:41:49;;;;;;;4.45;3.15;;;19.10;91.60;;;;;;5015602;28;20379;-85
2021/08/12 01:44:17;;;;;;;7.05;3.80;;;19.10;91.70;;;;;;5015896;28;20025;-83
2021/08/12 01:46:47;;;;;;;6.88;3.38;;;19.20;91.70;;;;;;5015487;28;20022;-85
2021/08/12 01:49:14;;;;;;;8.30;3.60;;;19.20;91.50;;;;;;5015841;28;20112;-85
2021/08/12 01:51:41;;;;;;;6.68;3.53;;;19.20;91.40;;;;;;5015918;28;20026;-86
2021/08/12 01:54:08;;;;;;;5.28;3.40;;;19.10;91.50;;;;;;5016169;28;20041;-85
2021/08/12 01:56:34;;;;;;;4.88;2.97;;;19.10;91.50;;;;;;5015577;28;20026;-86
2021/08/12 01:59:02;;;;;;;4.57;3.20;;;19.00;91.60;;;;;;5015380;28;20144;-86
2021/08/12 02:01:29;;;;;;;4.75;2.92;;;19.00;91.60;;;;;;5015461;28;20029;-86
2021/08/12 02:03:56;;;;;;;5.28;2.90;;;18.90;91.40;;;;;;5015262;28;20052;-86
2021/08/12 02:06:23;;;;;;;4.47;2.92;;;18.90;91.50;;;;;;5015741;28;20022;-86
2021/08/12 02:08:50;;;;;;;5.15;3.40;;;18.90;91.50;;;;;;5015169;28;20124;-86
2021/08/12 02:11:17;;;;;;;5.55;3.20;;;18.90;91.50;;;;;;5015564;28;20034;-86
2021/08/12 02:13:43;;;;;;;6.38;3.05;;;18.90;91.50;;;;;;5015410;28;20026;-87
2021/08/12 02:16:09;;;;;;;4.53;3.00;;;18.80;91.60;;;;;;5015599;28;20026;-86
2021/08/12 02:18:44;;;;;;;3.88;2.75;;;18.70;91.60;;;;;;5015376;28;20037;-85
2021/08/12 02:21:26;;;;;;;6.57;3.40;;;18.70;91.80;;;;;;5015828;28;20033;-85
2021/08/12 02:24:02;;;;;;;3.80;3.17;;;18.70;92.00;;;;;;5014909;28;20509;-84
2021/08/12 02:26:33;;;;;;;4.00;3.10;;;18.70;92.00;;;;;;5015304;28;20117;-84
2021/08/12 02:29:01;;;;;;;7.07;3.33;;;18.80;92.10;;;;;;5014918;28;20406;-84
2021/08/12 02:31:29;;;;;;;5.82;3.40;;;18.70;92.00;;;;;;5015220;28;20034;-85
2021/08/12 02:33:56;;;;;;;8.25;3.35;;;18.80;92.00;;;;;;5014718;28;20071;-87
2021/08/12 02:36:22;;;;;;;5.53;3.17;;;18.70;92.00;;;;;;5015494;28;20026;-86
2021/08/12 02:38:50;;;;;;;4.32;3.13;;;18.60;92.00;;;;;;5014656;28;20169;-87
2021/08/12 02:41:19;;;;;;;4.57;3.25;;;18.70;91.80;;;;;;5015121;28;20076;-86
2021/08/12 02:43:45;;;;;;;5.53;3.28;;;18.70;91.70;;;;;;5014378;28;20017;-88
2021/08/12 02:46:14;;;;;;;6.15;3.67;;;18.60;91.80;;;;;;5015312;28;20032;-87
2021/08/12 02:48:40;;;;;;;6.25;3.38;;;18.60;91.80;;;;;;5014811;28;20107;-86
2021/08/12 02:51:06;;;;;;;6.88;3.40;;;18.60;91.90;;;;;;5014203;28;20028;-84
2021/08/12 02:53:33;;;;;;;5.25;3.30;;;18.60;91.90;;;;;;5014684;28;20125;-85
2021/08/12 02:56:02;;;;;;;4.45;3.33;;;18.60;92.00;;;;;;5014512;28;20375;-84
2021/08/12 02:58:32;;;;;;;4.95;3.10;;;18.50;91.80;;;;;;5014676;28;20030;-85
2021/08/12 03:01:02;;;;;;;6.15;3.30;;;18.50;92.00;;;;;;5014273;28;20125;-84
2021/08/12 03:03:29;;;;;;;7.25;3.60;;;18.50;92.00;;;;;;5014534;28;20084;-85
2021/08/12 03:05:57;;;;;;;7.22;3.55;;;18.30;92.20;;;;;;5014110;28;20032;-85
2021/08/12 03:08:25;;;;;;;6.05;3.13;;;18.30;92.30;;;;;;5014843;28;20029;-84
2021/08/12 03:10:53;;;;;;;5.55;3.50;;;18.30;92.30;;;;;;5013887;28;20117;-84
2021/08/12 03:13:19;;;;;;;6.38;3.42;;;18.40;92.10;;;;;;5014534;28;20140;-84
2021/08/12 03:15:46;;;;;;;6.72;3.20;;;18.40;92.00;;;;;;5014580;28;20041;-85
2021/08/12 03:18:11;;;;;;;6.65;3.05;;;18.40;91.90;;;;;;5014476;28;20478;-85
2021/08/12 03:20:40;;;;;;;4.82;3.45;;;18.40;91.90;;;;;;5014310;28;20026;-85
2021/08/12 03:23:06;;;;;;;6.45;3.10;;;18.40;91.90;;;;;;5013845;28;20390;-85
2021/08/12 03:25:32;;;;;;;5.55;3.35;;;18.40;91.90;;;;;;5014032;28;20026;-86
2021/08/12 03:27:59;;;;;;;7.28;3.30;;;18.30;92.00;;;;;;5013739;28;20030;-85
2021/08/12 03:30:25;;;;;;;4.78;3.40;;;18.30;92.00;;;;;;5014288;28;20474;-85
2021/08/12 03:32:51;;;;;;;5.10;2.88;;;18.30;92.00;;;;;;5013743;28;20486;-85
2021/08/12 03:35:16;;;;;;;4.88;3.17;;;18.30;92.00;;;;;;5014289;28;20025;-85
2021/08/12 03:37:42;;;;;;;4.97;3.10;;;18.30;91.90;;;;;;5014111;28;20046;-86
2021/08/12 03:40:08;;;;;;;6.78;3.50;;;18.30;92.00;;;;;;5013711;28;20348;-85
2021/08/12 03:42:34;;;;;;;5.43;3.20;;;18.20;92.10;;;;;;5014002;28;20076;-85
2021/08/12 03:45:00;;;;;;;7.38;3.58;;;18.20;92.20;;;;;;5013560;28;20021;-85
2021/08/12 03:47:26;;;;;;;4.53;3.08;;;18.20;92.10;;;;;;5013975;28;20033;-86
2021/08/12 03:49:52;;;;;;;5.32;3.13;;;18.30;92.00;;;;;;5014207;28;20033;-87
2021/08/12 03:52:17;;;;;;;6.65;3.40;;;18.30;92.00;;;;;;5013142;28;20026;-84
2021/08/12 03:54:43;;;;;;;8.00;3.40;;;18.10;92.20;;;;;;5013131;28;20374;-83
2021/08/12 03:57:09;;;;;;;7.00;3.05;;;18.10;92.30;;;;;;5012741;28;20029;-84
2021/08/12 03:59:35;;;;;;;5.75;3.00;;;18.10;92.10;;;;;;5003710;28;20035;-84
2021/08/12 04:02:00;;;;;;;4.97;3.30;;;18.00;92.10;;;;;;5002028;28;20030;-84
2021/08/12 04:04:27;;;;;;;5.15;2.85;;;18.00;92.20;;;;;;4994784;28;20076;-84
2021/08/12 04:06:53;;;;;;;4.10;2.92;;;18.00;92.20;;;;;;5010033;28;20022;-84
2021/08/12 04:09:19;;;;;;;3.83;2.88;;;17.90;92.10;;;;;;4994038;28;20141;-84
2021/08/12 04:11:45;;;;;;;4.97;3.30;;;17.90;92.20;;;;;;4993862;28;20112;-85
2021/08/12 04:14:10;;;;;;;4.80;3.17;;;17.90;92.20;;;;;;4993590;28;20027;-83
2021/08/12 04:16:36;;;;;;;5.85;3.13;;;17.90;92.20;;;;;;4993970;28;20061;-85
2021/08/12 04:19:03;;;;;;;5.32;3.28;;;17.90;92.20;;;;;;5010101;28;20514;-85
2021/08/12 04:21:28;;;;;;;5.82;3.05;;;18.00;92.30;;;;;;4994605;28;20018;-86
2021/08/12 04:23:54;;;;;;;6.60;3.13;;;17.90;92.20;;;;;;4994078;28;20069;-87
2021/08/12 04:26:20;;;;;;;4.40;3.17;;;17.90;92.20;;;;;;5013219;28;20053;-87
2021/08/12 04:28:46;;;;;;;5.72;3.30;;;17.90;92.20;;;;;;5013306;28;20088;-86
2021/08/12 04:31:12;;;;;;;5.50;3.05;;;17.90;92.20;;;;;;5012751;28;20459;-86
2021/08/12 04:33:37;;;;;;;4.38;3.20;;;18.00;92.20;;;;;;5013236;28;20026;-86
2021/08/12 04:36:03;;;;;;;7.28;3.70;;;18.00;92.00;;;;;;5013964;28;20014;-86
2021/08/12 04:38:29;;;;;;;5.28;2.92;;;17.90;92.00;;;;;;5012882;28;20053;-87
2021/08/12 04:40:54;;;;;;;7.55;3.63;;;17.90;92.10;;;;;;5013459;28;20057;-87
2021/08/12 04:43:20;;;;;;;6.53;3.60;;;17.90;92.30;;;;;;5014337;28;20018;-85
2021/08/12 04:45:46;;;;;;;4.53;3.25;;;17.90;92.40;;;;;;5014290;28;20025;-84
2021/08/12 04:48:15;;;;;;;7.30;3.40;;;17.80;92.60;;;;;;5013498;28;20046;-84
2021/08/12 04:50:41;;;;;;;7.10;3.30;;;17.90;92.70;;;;;;5013061;28;20447;-83
2021/08/12 04:53:06;;;;;;;4.38;3.05;;;18.00;92.60;;;;;;5013586;28;20033;-84
2021/08/12 04:55:32;;;;;;;7.30;3.70;;;18.10;92.50;;;;;;5013162;28;20026;-84
2021/08/12 04:57:58;;;;;;;7.13;3.55;;;18.10;92.40;;;;;;5012840;28;20080;-85
2021/08/12 05:00:24;;;;;;;6.20;3.55;;;18.00;92.50;;;;;;5014048;28;20059;-85
2021/08/12 05:02:50;;;;;;;5.30;3.50;;;17.90;92.60;;;;;;5013754;28;20026;-85
2021/08/12 05:05:15;;;;;;;5.82;3.72;;;17.90;92.70;;;;;;5013118;28;20375;-84
2021/08/12 05:07:41;;;;;;;5.10;3.38;;;17.90;92.90;;;;;;5016974;28;20017;-85
2021/08/12 05:10:08;;;;;;;6.38;4.07;;;17.90;92.90;;;;;;5017328;28;20030;-85
2021/08/12 05:12:33;;;;;;;7.50;4.00;;;18.00;92.90;;;;;;5016528;28;20034;-85
2021/08/12 05:14:59;;;;;;;5.72;3.63;;;18.10;92.90;;;;;;5016280;28;20121;-85
2021/08/12 05:17:26;;;;;;;7.15;4.47;;;18.10;93.10;;;;;;5016846;28;20025;-85
2021/08/12 05:19:52;;;;;;;8.48;3.80;;;18.20;92.80;;;;;;5016661;28;20030;-88
2021/08/12 05:22:22;;;;;;;5.50;3.60;;;18.30;92.80;;;;;;5016208;28;20113;-88
2021/08/12 05:24:48;;;;;;;6.32;3.67;;;18.30;92.80;;;;;;5017414;28;20097;-88
2021/08/12 05:27:13;;;;;;;6.82;3.20;;;18.30;92.60;;;;;;5015842;28;20374;-88
2021/08/12 05:29:39;;;;;;;6.10;3.63;;;18.30;92.70;;;;;;5017383;28;20037;-88
2021/08/12 05:32:05;;;;;;;6.28;3.97;;;18.30;92.70;;;;;;5015950;28;20360;-88
2021/08/12 05:34:30;;;;;;;7.47;4.07;;;18.30;92.70;;;;;;5015903;28;20113;-88
2021/08/12 05:36:56;;;;;;;7.45;4.10;;;18.30;92.70;;;;;;5032274;28;20085;-88
2021/08/12 05:39:22;;;;;;;6.95;4.07;;;18.20;92.70;;;;;;5033457;28;20052;-88
2021/08/12 05:41:47;;;;;;;7.43;4.00;;;18.20;92.70;;;;;;5017014;28;20061;-88
2021/08/12 05:44:13;;;;;;;7.85;3.97;;;18.30;92.80;;;;;;5017065;28;20025;-88
2021/08/12 05:46:39;;;;;;;7.30;3.97;;;18.40;92.70;;;;;;5018990;28;20025;-88
2021/08/12 05:49:04;;;;;;;7.38;3.65;;;18.40;92.90;;;;;;5018115;28;20079;-85
2021/08/12 05:51:34;;;;;;;8.55;4.28;;;18.40;92.50;;;;;;5017519;28;20021;-87
2021/08/12 05:54:00;;;;;;;6.00;3.88;;;18.40;92.40;;;;;;5016633;28;20085;-88
2021/08/12 05:56:26;;;;;;;4.68;3.40;;;18.50;92.40;;;;;;5033494;28;20359;-88
2021/08/12 05:58:51;;;;;;;5.93;3.72;;;18.50;92.40;;;;;;5017238;28;20057;-87
2021/08/12 06:01:17;;;;;;;6.80;3.65;;;18.60;92.30;;;;;;5015811;28;20048;-88
2021/08/12 06:03:42;;;;;;;6.20;3.70;;;18.60;92.40;;;;;;5016060;28;20022;-85
2021/08/12 06:06:08;;;;;;;8.30;3.85;;;18.70;92.30;;;;;;5033679;28;20022;-84
2021/08/12 06:08:34;;;;;;;7.20;3.67;;;18.70;92.30;;;;;;5015853;28;20028;-84
2021/08/12 06:11:00;;;;;;;6.93;3.50;;;18.70;92.30;;;;;;5015611;28;20032;-85
2021/08/12 06:13:25;;;;;;;6.40;4.00;;;18.70;92.30;;;;;;5016668;28;20056;-86
2021/08/12 06:15:51;;;;;;;8.52;3.80;;;18.70;92.50;;;;;;5032175;28;20113;-85
2021/08/12 06:18:17;;;;;;;6.95;3.90;;;18.70;92.60;;;;;;5014838;28;20050;-85
2021/08/12 06:20:43;;;;;;;7.65;4.03;;;18.80;92.60;;;;;;5015526;28;20029;-85
2021/08/12 06:23:10;;;;;;;5.25;3.80;;;18.80;92.70;;;;;;5015325;28;20101;-85
2021/08/12 06:25:37;;;;;;;8.00;3.80;;;18.80;92.80;;;;;;5015391;28;20033;-85
2021/08/12 06:28:04;;;;;;;6.82;4.25;;;18.80;92.80;;;;;;5014863;28;20034;-84
2021/08/12 06:30:30;;;;;;;6.18;4.03;;;18.80;92.80;;;;;;5014959;28;20022;-84
2021/08/12 06:33:16;;;;;;;8.15;4.25;;;18.80;93.00;;;;;;5015225;28;20455;-86
2021/08/12 06:35:42;;;;;;;9.68;3.90;;;19.00;92.90;;;;;;5004509;28;20025;-86
2021/08/12 06:38:11;;;;;;;12.50;4.40;;;19.00;92.80;;;;;;5014336;28;20132;-86
2021/08/12 06:40:37;;;;;;;12.88;4.82;;;19.10;92.80;;;;;;5015244;28;20021;-85
2021/08/12 06:43:03;;;;;;;6.93;4.22;;;19.20;92.90;;;;;;5014549;28;20078;-85
2021/08/12 06:45:28;;;;;;;8.55;4.50;;;19.30;92.60;;;;;;5015098;28;20018;-85
2021/08/12 06:47:54;;;;;;;11.40;4.97;;;19.40;92.60;;;;;;5014802;28;20474;-84
2021/08/12 06:50:22;;;;;;;8.15;3.92;;;19.50;92.50;;;;;;5014122;28;20406;-84
2021/08/12 06:52:48;;;;;;;8.18;5.18;;;19.60;92.60;;;;;;5014807;28;20029;-85
2021/08/12 06:55:14;;;;;;;12.30;4.15;;;19.60;92.30;;;;;;5014386;28;20036;-85
2021/08/12 06:57:39;;;;;;;8.38;4.57;;;19.60;92.10;;;;;;5014650;28;20033;-85
2021/08/12 07:00:06;;;;;;;8.63;4.75;;;19.60;92.00;;;;;;5014398;28;20033;-84
2021/08/12 07:02:32;;;;;;;9.63;4.40;;;19.60;91.90;;;;;;5015762;28;20018;-86
2021/08/12 07:04:58;;;;;;;11.63;6.07;;;19.60;91.90;;;;;;5031338;28;20111;-86
2021/08/12 07:07:23;;;;;;;8.43;4.95;;;19.60;91.80;;;;;;5015336;28;20021;-86
2021/08/12 07:09:51;;;;;;;8.88;4.45;;;19.60;91.80;;;;;;5015626;28;20518;-85
2021/08/12 07:12:17;;;;;;;6.60;4.13;;;19.60;91.90;;;;;;5014003;28;20140;-85
2021/08/12 07:14:43;;;;;;;6.95;4.10;;;19.70;91.80;;;;;;5013698;28;20479;-87
2021/08/12 07:17:08;;;;;;;7.63;4.10;;;19.70;91.60;;;;;;5013966;28;20025;-85
2021/08/12 07:19:34;;;;;;;6.93;4.35;;;19.70;91.70;;;;;;5014176;28;20463;-85
2021/08/12 07:22:00;;;;;;;7.63;4.45;;;19.80;91.80;;;;;;5014487;28;20128;-85
2021/08/12 07:24:25;;;;;;;8.88;4.30;;;19.80;91.70;;;;;;5013798;28;20517;-85
2021/08/12 07:26:52;;;;;;;9.10;4.68;;;19.70;91.50;;;;;;5013794;28;20053;-85
2021/08/12 07:29:19;;;;;;;12.23;4.75;;;19.80;91.60;;;;;;5012727;28;20037;-84
2021/08/12 07:31:45;;;;;;;7.78;4.00;;;19.70;91.60;;;;;;5013914;28;20034;-85
2021/08/12 07:34:11;;;;;;;7.25;3.80;;;19.80;91.60;;;;;;5013559;28;20478;-84
2021/08/12 07:36:38;;;;;;;9.52;3.80;;;19.80;91.70;;;;;;5013732;28;20053;-83
2021/08/12 07:39:05;;;;;;;11.95;4.40;;;19.80;91.80;;;;;;5000703;28;20019;-84
2021/08/12 07:41:33;;;;;;;7.45;4.30;;;19.90;91.80;;;;;;4995317;28;20026;-84
2021/08/12 07:43:58;;;;;;;7.32;3.90;;;20.00;91.90;;;;;;4998330;28;20518;-88
2021/08/12 07:46:24;;;;;;;7.20;3.92;;;20.00;91.60;;;;;;4993627;28;20019;-85
2021/08/12 07:48:50;;;;;;;9.15;4.65;;;20.00;91.40;;;;;;4994888;28;20033;-85
2021/08/12 07:51:16;;;;;;;6.55;4.03;;;20.10;91.20;;;;;;4993535;28;20371;-85
2021/08/12 07:53:43;;;;;;;10.27;4.45;;;20.10;91.10;;;;;;4994291;28;20472;-86
2021/08/12 07:56:09;;;;;;;5.75;4.18;;;20.10;91.10;;;;;;4993499;28;20036;-88
2021/08/12 07:58:35;;;;;;;5.65;4.15;;;20.20;91.10;;;;;;5013002;28;20057;-85
2021/08/12 08:01:02;;;;;;;7.15;4.05;;;20.20;91.00;;;;;;5013850;28;20025;-83
2021/08/12 08:03:28;;;;;;;6.85;3.92;;;20.20;91.10;;;;;;5013055;28;20057;-83
2021/08/12 08:05:54;;;;;;;7.63;4.15;;;20.30;91.10;;;;;;5012860;28;20038;-84
2021/08/12 08:08:20;;;;;;;6.78;4.40;;;20.30;91.00;;;;;;5012939;28;20026;-86
2021/08/12 08:10:45;;;;;;;10.60;4.28;;;20.40;91.00;;;;;;5014583;28;20030;-87
2021/08/12 08:13:11;;;;;;;8.40;4.47;;;20.50;90.90;;;;;;5013284;28;20092;-86
2021/08/12 08:15:36;;;;;;;8.23;4.65;;;20.50;90.80;;;;;;5013349;28;20451;-86
2021/08/12 08:18:03;;;;;;;11.18;4.28;;;20.60;90.60;;;;;;5013703;28;20073;-87
2021/08/12 08:20:30;;;;;;;8.90;4.85;;;20.70;90.80;;;;;;5013563;28;20030;-84
2021/08/12 08:23:01;;;;;;;7.18;4.30;;;20.80;90.70;;;;;;5013363;28;20084;-85
2021/08/12 08:25:27;;;;;;;6.72;4.05;;;20.80;90.60;;;;;;5012952;28;20018;-86
2021/08/12 08:27:52;;;;;;;6.60;4.32;;;20.80;90.50;;;;;;5013180;28;20451;-85
2021/08/12 08:30:19;;;;;;;6.60;4.25;;;20.80;90.60;;;;;;5024436;28;20386;-79
2021/08/12 08:32:45;;;;;;;7.57;4.57;;;20.90;90.60;;;;;;5029191;28;20065;-80
2021/08/12 08:35:11;;;;;;;7.03;4.35;;;20.90;90.70;;;;;;5028796;28;20030;-84
2021/08/12 08:37:36;;;;;;;9.35;4.55;;;21.00;90.70;;;;;;5028136;28;20046;-82
2021/08/12 08:40:02;;;;;;;8.30;4.57;;;21.00;90.50;;;;;;5011497;28;20053;-82
2021/08/12 08:42:28;;;;;;;10.50;4.38;;;21.00;90.40;;;;;;5015414;28;20048;-82
2021/08/12 08:44:57;;;;;;;7.97;4.57;;;21.00;90.40;;;;;;5005800;28;20030;-82
2021/08/12 08:47:25;;;;;;;7.38;4.63;;;21.10;90.20;;;;;;5012164;28;20030;-83
2021/08/12 08:49:52;;;;;;;8.13;4.40;;;21.10;90.20;;;;;;5014931;28;20098;-81
2021/08/12 08:52:20;;;;;;;7.07;4.43;;;21.10;90.10;;;;;;5001203;28;20049;-80
2021/08/12 08:54:46;;;;;;;7.22;4.40;;;21.20;90.10;;;;;;4995894;28;20177;-81
2021/08/12 08:57:12;;;;;;;5.97;4.10;;;21.20;90.00;;;;;;4995231;28;20022;-81
2021/08/12 08:59:38;;;;;;;6.25;4.43;;;21.30;89.90;;;;;;4996558;28;20084;-81
2021/08/12 09:02:08;;;;;;;8.00;4.68;;;21.40;89.80;;;;;;4996824;28;20030;-80
2021/08/12 09:04:38;;;;;;;6.47;4.60;;;21.50;89.60;;;;;;4996295;28;20038;-80
2021/08/12 09:07:08;;;;;;;11.13;4.97;;;21.60;89.00;;;;;;4996612;28;20026;-82
2021/08/12 09:09:37;;;;;;;6.70;4.00;;;21.60;88.40;;;;;;4998269;28;20037;-82
2021/08/12 09:12:05;;;;;;;7.45;4.50;;;21.60;88.20;;;;;;5014089;28;20032;-80
2021/08/12 09:14:42;;;;;;;8.73;4.38;;;21.70;88.20;;;;;;5016047;28;20025;-80
2021/08/12 09:17:24;;;;;;;7.22;4.68;;;21.80;88.80;;;;;;5008425;28;20026;-84
2021/08/12 09:20:20;;;;;;;8.35;4.60;;;21.80;88.50;;;;;;5015762;28;20482;-83
2021/08/12 09:23:07;;;;;;;9.73;5.05;;;21.90;88.70;;;;;;5007200;28;20053;-84
2021/08/12 09:25:47;;;;;;;9.80;5.13;;;21.90;87.90;;;;;;5015256;28;20021;-82
2021/08/12 09:28:18;;;;;;;6.70;4.10;;;21.80;87.50;;;;;;5003364;28;20037;-84
2021/08/12 09:31:06;;;;;;;11.38;4.07;;;21.80;87.20;;;;;;5018329;28;20030;-83
2021/08/12 09:33:40;;;;;;;7.63;4.18;;;21.90;86.90;;;;;;5030820;28;20509;-81
2021/08/12 09:36:26;;;;;;;6.55;4.25;;;21.90;87.00;;;;;;5031786;28;20029;-81
2021/08/12 09:39:10;;;;;;;7.43;4.00;;;21.90;87.20;;;;;;5030972;28;20056;-82
2021/08/12 09:41:48;;;;;;;5.20;3.83;;;22.00;87.00;;;;;;5031220;28;20079;-84
2021/08/12 09:44:44;;;;;;;6.70;3.80;;;22.10;86.20;;;;;;5012905;28;20040;-82
2021/08/12 09:47:14;;;;;;;7.47;4.15;;;22.10;86.10;;;;;;5000031;28;20025;-85
2021/08/12 09:49:47;;;;;;;8.82;4.10;;;22.10;85.90;;;;;;5015027;28;20033;-81
2021/08/12 09:52:21;;;;;;;5.30;3.70;;;22.20;86.10;;;;;;5013349;28;20038;-82
2021/08/12 09:54:56;;;;;;;6.47;3.78;;;22.20;86.10;;;;;;5014643;28;20458;-82
2021/08/12 09:57:21;;;;;;;8.35;3.75;;;22.30;85.30;;;;;;5013907;28;20038;-81
2021/08/12 09:59:52;;;;;;;6.03;3.63;;;22.40;85.10;;;;;;5015714;28;20096;-81
2021/08/12 10:02:21;;;;;;;7.00;3.70;;;22.60;84.50;;;;;;5014469;28;20054;-82
2021/08/12 10:05:05;;;;;;;7.55;4.00;;;22.60;84.10;;;;;;5014706;28;20026;-83
2021/08/12 10:07:37;;;;;;;7.82;3.80;;;22.80;84.60;;;;;;5015105;28;20033;-82
2021/08/12 10:10:10;;;;;;;9.50;4.15;;;22.90;84.50;;;;;;5013372;28;20025;-81
2021/08/12 10:12:36;;;;;;;6.82;3.92;;;23.00;84.20;;;;;;5010696;28;20131;-81
2021/08/12 10:15:02;;;;;;;7.15;3.88;;;23.10;83.60;;;;;;5015456;28;20391;-83
2021/08/12 10:17:28;;;;;;;8.98;3.92;;;23.10;83.20;;;;;;5013602;28;20030;-81
2021/08/12 10:19:57;;;;;;;5.75;3.70;;;23.20;83.00;;;;;;5014680;28;20029;-81
2021/08/12 10:22:22;;;;;;;5.50;3.90;;;23.30;82.90;;;;;;5015030;28;20026;-87
2021/08/12 10:24:51;;;;;;;5.93;3.80;;;23.40;82.90;;;;;;5030634;28;20340;-86
2021/08/12 10:27:17;;;;;;;5.90;3.80;;;23.50;81.90;;;;;;5013630;28;20029;-84
2021/08/12 10:29:45;;;;;;;4.88;3.67;;;23.60;81.70;;;;;;5014276;28;20116;-84
2021/08/12 10:32:15;;;;;;;10.93;4.38;;;23.60;81.50;;;;;;5014883;28;20026;-84
2021/08/12 10:34:41;;;;;;;6.53;4.20;;;23.70;81.30;;;;;;5014698;28;20121;-84
2021/08/12 10:37:08;;;;;;;5.93;3.75;;;23.80;81.30;;;;;;5010039;28;20128;-84
2021/08/12 10:39:36;;;;;;;7.20;4.05;;;24.00;82.20;;;;;;5027793;28;20037;-84
2021/08/12 10:42:06;;;;;;;7.38;3.80;;;24.10;81.50;;;;;;5014354;28;20029;-86
2021/08/12 10:44:32;;;;;;;7.38;4.38;;;24.20;80.90;;;;;;5014975;28;20025;-84
2021/08/12 10:46:57;;;;;;;6.53;3.75;;;24.30;80.40;;;;;;5014582;28;20049;-84
2021/08/12 10:49:32;;;;;;;5.55;3.80;;;24.30;80.00;;;;;;5013689;28;20030;-81
2021/08/12 10:52:05;;;;;;;6.95;3.78;;;24.40;79.70;;;;;;5013795;28;20022;-81
2021/08/12 10:54:34;;;;;;;6.50;4.05;;;24.40;80.30;;;;;;5014088;28;20030;-83
2021/08/12 10:57:19;;;;;;;8.52;4.10;;;24.50;79.60;;;;;;5013378;28;20025;-82
2021/08/12 10:59:46;;;;;;;6.70;4.13;;;24.70;79.10;;;;;;5013485;28;20034;-81
2021/08/12 11:02:27;;;;;;;9.32;3.88;;;24.70;78.20;;;;;;5013218;28;20116;-82
2021/08/12 11:04:54;;;;;;;5.90;3.80;;;24.90;76.80;;;;;;5013268;28;20026;-81
2021/08/12 11:07:50;;;;;;;8.15;4.10;;;24.90;77.30;;;;;;5012534;28;20160;-82
2021/08/12 11:10:16;;;;;;;5.43;3.58;;;25.00;76.50;;;;;;5011499;28;20038;-85
2021/08/12 11:12:54;;;;;;;7.60;3.88;;;25.10;76.50;;;;;;5013099;28;20030;-80
2021/08/12 11:15:38;;;;;;;8.40;3.95;;;25.20;76.90;;;;;;5013637;28;20461;-79
2021/08/12 11:18:06;;;;;;;6.15;3.90;;;25.30;76.00;;;;;;5012699;28;20025;-79
2021/08/12 11:20:38;;;;;;;5.60;3.90;;;25.40;75.90;;;;;;5011857;28;20034;-79
2021/08/12 11:23:19;;;;;;;5.63;3.78;;;25.50;75.60;;;;;;5013884;28;20018;-80
2021/08/12 11:26:04;;;;;;;4.68;3.28;;;25.60;74.50;;;;;;5012490;28;20030;-82
2021/08/12 11:28:39;;;;;;;5.95;3.80;;;25.70;74.60;;;;;;5013229;28;20297;-80
2021/08/12 11:31:28;;;;;;;7.50;3.80;;;25.90;74.30;;;;;;4999879;28;20106;-81
2021/08/12 11:33:59;;;;;;;7.10;3.83;;;25.90;74.20;;;;;;4993869;28;20048;-82
2021/08/12 11:36:27;;;;;;;6.80;4.03;;;26.00;73.40;;;;;;5013907;28;20022;-82
2021/08/12 11:38:54;;;;;;;5.38;3.67;;;26.00;73.20;;;;;;5012639;28;20045;-82
2021/08/12 11:41:21;;;;;;;6.40;4.35;;;26.10;72.70;;;;;;5012423;28;20029;-82
2021/08/12 11:43:48;;;;;;;6.50;3.58;;;26.20;72.40;;;;;;5013351;28;20184;-79
2021/08/12 11:46:14;;;;;;;6.05;3.90;;;26.20;71.90;;;;;;5008900;28;20076;-82
2021/08/12 11:48:43;;;;;;;5.60;4.15;;;26.40;71.80;;;;;;5005079;28;20058;-81
2021/08/12 11:51:09;;;;;;;6.18;3.97;;;26.40;72.20;;;;;;5014405;28;20021;-83
2021/08/12 11:53:45;;;;;;;7.10;3.40;;;26.50;71.90;;;;;;5012355;28;20029;-83
2021/08/12 11:56:23;;;;;;;8.55;3.95;;;26.50;72.10;;;;;;5029184;28;20025;-87
2021/08/12 11:58:54;;;;;;;5.65;3.47;;;26.60;72.60;;;;;;5013448;28;20447;-81
2021/08/12 12:01:22;;;;;;;5.32;3.65;;;26.60;72.40;;;;;;5012319;28;20113;-80
2021/08/12 12:03:55;;;;;;;5.78;3.88;;;26.60;71.90;;;;;;5011593;28;20207;-81
2021/08/12 12:06:41;;;;;;;5.90;4.00;;;26.60;72.00;;;;;;5011727;28;20026;-80
2021/08/12 12:09:27;;;;;;;5.53;3.70;;;26.70;73.10;;;;;;4997447;28;20013;-80
2021/08/12 12:12:00;;;;;;;6.20;3.95;;;26.70;72.40;;;;;;5012200;28;20060;-80
2021/08/12 12:14:28;;;;;;;4.53;3.50;;;26.70;72.00;;;;;;5012410;28;20451;-79
2021/08/12 12:17:14;;;;;;;8.13;3.90;;;26.70;71.80;;;;;;4999306;28;20022;-79
2021/08/12 12:20:01;;;;;;;5.80;3.85;;;26.70;71.70;;;;;;5011394;28;20108;-79
2021/08/12 12:22:28;;;;;;;5.32;3.80;;;26.80;72.30;;;;;;5011223;28;20022;-79
2021/08/12 12:24:53;;;;;;;6.25;3.78;;;26.80;72.10;;;;;;5012086;28;20470;-79
2021/08/12 12:27:20;;;;;;;7.30;3.95;;;26.90;71.20;;;;;;5012427;28;20057;-78
2021/08/12 12:29:50;;;;;;;5.15;3.42;;;27.00;71.00;;;;;;5011428;28;20052;-79
2021/08/12 12:32:19;;;;;;;5.75;3.88;;;27.10;72.10;;;;;;5011659;28;20360;-80
2021/08/12 12:34:55;;;;;;;7.53;3.85;;;27.20;70.90;;;;;;5011654;28;20026;-79
2021/08/12 12:37:22;;;;;;;6.18;3.65;;;27.40;70.90;;;;;;5011848;28;20557;-83
2021/08/12 12:39:48;;;;;;;6.82;3.95;;;27.50;69.60;;;;;;5003030;28;20052;-82
2021/08/12 12:42:15;;;;;;;5.10;3.33;;;27.70;69.00;;;;;;5006598;28;20022;-84
2021/08/12 12:44:57;;;;;;;5.65;3.42;;;27.80;68.30;;;;;;5011980;28;20022;-84
2021/08/12 12:47:27;;;;;;;4.57;3.60;;;27.90;67.10;;;;;;5012214;28;20026;-81
2021/08/12 12:50:14;;;;;;;6.35;3.75;;;28.00;67.10;;;;;;5011333;28;20085;-81
2021/08/12 12:53:01;;;;;;;5.38;3.78;;;28.20;66.00;;;;;;5011751;28;20060;-81
2021/08/12 12:55:37;;;;;;;5.00;3.60;;;28.40;66.20;;;;;;5011305;28;20048;-82